Time;durP1;ratioP1;P1;durP2;ratioP2;P2;SDS_P1;SDS_P2;PMS_P1;PMS_P2;Temp;Humidity;BMP_temperature;BMP_pressure;BME280_temperature;BME280_humidity;BME280_pressure;Samples;Min_cycle;Max_cycle;Signal;HPM_P1;HPM_P2
2022/03/03 00:00:19;;;;;;;18.55;11.93;;;-2.80;99.40;;;;;;4940766;29;20060;-80
2022/03/03 00:02:45;;;;;;;13.93;12.05;;;-2.80;99.30;;;;;;4948188;29;20050;-80
2022/03/03 00:05:12;;;;;;;15.10;11.52;;;-2.90;99.60;;;;;;4950222;29;20036;-81
2022/03/03 00:07:40;;;;;;;17.33;11.98;;;-2.90;99.90;;;;;;4944329;29;20040;-79
2022/03/03 00:10:08;;;;;;;12.80;11.48;;;-3.00;99.90;;;;;;4941894;29;20040;-80
2022/03/03 00:12:34;;;;;;;14.95;12.68;;;-3.00;99.90;;;;;;4956338;28;20059;-80
2022/03/03 00:15:01;;;;;;;20.55;12.93;;;-2.80;99.90;;;;;;4941648;29;20040;-80
2022/03/03 00:17:27;;;;;;;17.80;15.93;;;-2.80;99.90;;;;;;4938124;29;20040;-80
2022/03/03 00:19:53;;;;;;;15.82;12.20;;;-2.80;99.90;;;;;;4944988;29;20031;-80
2022/03/03 00:22:20;;;;;;;15.10;11.95;;;-2.90;99.90;;;;;;4937341;29;20039;-79
2022/03/03 00:24:46;;;;;;;15.80;13.00;;;-3.00;99.90;;;;;;4937161;29;20389;-79
2022/03/03 00:27:12;;;;;;;13.98;12.50;;;-3.10;99.90;;;;;;4937607;29;20047;-80
2022/03/03 00:29:38;;;;;;;14.88;12.07;;;-3.10;99.90;;;;;;4938908;29;20035;-80
2022/03/03 00:32:05;;;;;;;13.57;11.63;;;-3.20;99.90;;;;;;4946704;29;20043;-79
2022/03/03 00:34:31;;;;;;;18.85;14.63;;;-3.20;99.90;;;;;;4936068;29;20061;-80
2022/03/03 00:36:58;;;;;;;15.70;13.05;;;-3.10;99.90;;;;;;4937039;29;20046;-80
2022/03/03 00:39:24;;;;;;;23.67;19.13;;;-3.00;99.90;;;;;;4935925;29;20028;-80
2022/03/03 00:41:50;;;;;;;26.33;17.67;;;-2.90;99.90;;;;;;4937269;29;20034;-80
2022/03/03 00:44:17;;;;;;;19.70;14.88;;;-3.00;99.90;;;;;;4936076;29;20367;-80
2022/03/03 00:46:43;;;;;;;15.85;13.18;;;-3.00;99.90;;;;;;4936772;29;20127;-80
2022/03/03 00:49:09;;;;;;;14.70;13.15;;;-3.10;99.90;;;;;;4954578;28;20048;-79
2022/03/03 00:51:35;;;;;;;18.75;13.40;;;-3.20;99.90;;;;;;4949791;29;20039;-80
2022/03/03 00:54:02;;;;;;;15.63;13.35;;;-3.10;99.90;;;;;;4952116;29;20043;-79
2022/03/03 00:56:28;;;;;;;17.92;12.45;;;-3.20;99.90;;;;;;4935633;29;20044;-80
2022/03/03 00:58:54;;;;;;;16.20;13.10;;;-3.20;99.90;;;;;;4949270;28;20047;-79
2022/03/03 01:01:21;;;;;;;21.02;15.23;;;-3.10;99.90;;;;;;4959423;28;20047;-80
2022/03/03 01:03:47;;;;;;;18.88;13.43;;;-3.10;99.90;;;;;;4944595;29;20058;-80
2022/03/03 01:06:14;;;;;;;17.98;13.35;;;-3.10;99.90;;;;;;4944760;29;20480;-79
2022/03/03 01:08:40;;;;;;;14.73;13.20;;;-3.20;99.90;;;;;;4947278;29;20038;-79
2022/03/03 01:11:07;;;;;;;22.30;15.30;;;-3.20;99.90;;;;;;4949329;29;20039;-80
2022/03/03 01:13:34;;;;;;;24.40;19.08;;;-3.10;99.90;;;;;;4934555;29;20036;-79
2022/03/03 01:16:00;;;;;;;17.10;13.98;;;-3.20;99.90;;;;;;4936908;29;20046;-80
2022/03/03 01:18:26;;;;;;;15.80;13.63;;;-3.30;99.90;;;;;;4941327;29;20035;-79
2022/03/03 01:20:54;;;;;;;15.02;12.93;;;-3.40;99.90;;;;;;4939678;29;20035;-80
2022/03/03 01:23:21;;;;;;;17.08;13.57;;;-3.40;99.90;;;;;;4944556;29;20115;-79
2022/03/03 01:25:48;;;;;;;17.42;14.30;;;-3.30;99.90;;;;;;4936657;29;20031;-79
2022/03/03 01:28:14;;;;;;;19.05;14.23;;;-3.30;99.90;;;;;;4943422;29;20055;-80
2022/03/03 01:30:40;;;;;;;22.10;14.43;;;-3.20;99.90;;;;;;4936215;29;20040;-79
2022/03/03 01:33:07;;;;;;;16.67;13.10;;;-3.10;99.90;;;;;;4934632;29;20044;-79
2022/03/03 01:35:34;;;;;;;17.13;14.82;;;-3.10;99.90;;;;;;4933792;29;20034;-79
2022/03/03 01:38:00;;;;;;;16.13;14.25;;;-3.20;99.90;;;;;;4933835;29;20040;-79
2022/03/03 01:40:27;;;;;;;17.15;13.13;;;-3.30;99.90;;;;;;4935479;29;20405;-79
2022/03/03 01:42:54;;;;;;;15.43;12.23;;;-3.30;99.90;;;;;;4935986;29;20043;-79
2022/03/03 01:45:20;;;;;;;21.65;14.55;;;-3.40;99.90;;;;;;4934941;29;20046;-80
2022/03/03 01:47:47;;;;;;;15.43;13.52;;;-3.30;99.90;;;;;;4946395;29;20044;-80
2022/03/03 01:50:13;;;;;;;16.13;13.18;;;-3.30;99.90;;;;;;4935529;29;20054;-80
2022/03/03 01:52:39;;;;;;;15.15;13.18;;;-3.30;99.90;;;;;;4935098;29;20046;-80
2022/03/03 01:55:06;;;;;;;20.27;13.80;;;-3.20;99.90;;;;;;4955472;28;20048;-80
2022/03/03 01:57:33;;;;;;;15.07;12.85;;;-3.20;99.90;;;;;;4934678;29;20043;-80
2022/03/03 02:00:00;;;;;;;16.38;13.35;;;-3.20;99.90;;;;;;4935566;28;20042;-79
2022/03/03 02:02:27;;;;;;;19.48;15.82;;;-3.30;99.90;;;;;;4938416;29;20044;-80
2022/03/03 02:04:54;;;;;;;17.80;14.68;;;-3.40;99.90;;;;;;4935465;29;20031;-79
2022/03/03 02:07:21;;;;;;;19.02;15.73;;;-3.40;99.90;;;;;;4935352;29;20051;-80
2022/03/03 02:09:47;;;;;;;16.23;14.57;;;-3.50;99.90;;;;;;4950446;29;20034;-80
2022/03/03 02:12:14;;;;;;;20.88;16.85;;;-3.50;99.90;;;;;;4952168;29;20028;-80
2022/03/03 02:14:48;;;;;;;20.48;16.10;;;-3.50;99.90;;;;;;4943982;29;20035;-80
2022/03/03 02:17:14;;;;;;;16.38;13.98;;;-3.60;99.90;;;;;;4938709;29;20031;-80
2022/03/03 02:19:41;;;;;;;21.02;14.48;;;-3.60;99.90;;;;;;4937456;29;20492;-80
2022/03/03 02:22:08;;;;;;;17.88;14.38;;;-3.70;99.90;;;;;;4944631;29;20039;-79
2022/03/03 02:24:35;;;;;;;20.15;16.70;;;-3.70;99.90;;;;;;4934785;29;20504;-79
2022/03/03 02:27:02;;;;;;;21.98;16.60;;;-3.70;99.90;;;;;;4953465;28;20074;-80
2022/03/03 02:29:29;;;;;;;15.98;13.82;;;-3.70;99.90;;;;;;4934304;29;20031;-80
2022/03/03 02:31:56;;;;;;;24.73;15.80;;;-3.60;99.90;;;;;;4934996;29;20481;-80
2022/03/03 02:34:23;;;;;;;15.60;14.02;;;-3.60;99.90;;;;;;4935036;29;20043;-80
2022/03/03 02:36:49;;;;;;;17.67;15.07;;;-3.60;99.90;;;;;;4942577;29;20126;-80
2022/03/03 02:39:15;;;;;;;18.13;14.07;;;-3.70;99.90;;;;;;4946234;29;20032;-80
2022/03/03 02:41:42;;;;;;;21.13;16.38;;;-3.70;99.90;;;;;;4951777;29;20043;-80
2022/03/03 02:44:08;;;;;;;21.98;16.95;;;-3.70;99.90;;;;;;4958863;28;20045;-80
2022/03/03 02:46:34;;;;;;;17.05;14.68;;;-3.70;99.90;;;;;;4954249;28;20047;-81
2022/03/03 02:49:00;;;;;;;17.38;14.25;;;-3.80;99.90;;;;;;4934296;29;20036;-81
2022/03/03 02:51:27;;;;;;;17.42;13.73;;;-3.80;99.90;;;;;;4935822;29;20485;-81
2022/03/03 02:53:53;;;;;;;19.10;16.13;;;-3.90;99.90;;;;;;4936338;29;20043;-81
2022/03/03 02:56:19;;;;;;;20.30;16.35;;;-3.90;99.90;;;;;;4935289;29;20036;-81
2022/03/03 02:58:45;;;;;;;21.67;16.80;;;-4.00;99.90;;;;;;4953425;28;20361;-81
2022/03/03 03:01:15;;;;;;;18.48;15.07;;;-3.90;99.90;;;;;;4937907;29;20036;-81
2022/03/03 03:03:41;;;;;;;16.50;14.68;;;-4.00;99.90;;;;;;4935680;29;20036;-81
2022/03/03 03:06:11;;;;;;;19.58;15.40;;;-4.00;99.90;;;;;;4949294;28;20397;-81
2022/03/03 03:08:37;;;;;;;18.40;16.30;;;-4.00;99.90;;;;;;4949360;28;20496;-81
2022/03/03 03:11:03;;;;;;;24.92;17.35;;;-3.90;99.90;;;;;;4935241;29;20051;-81
2022/03/03 03:13:30;;;;;;;18.35;16.38;;;-3.80;99.90;;;;;;4958704;28;20062;-81
2022/03/03 03:15:56;;;;;;;16.55;14.85;;;-4.00;99.90;;;;;;4940691;29;20032;-81
2022/03/03 03:18:23;;;;;;;19.40;16.83;;;-4.00;99.90;;;;;;4938466;29;20046;-81
2022/03/03 03:20:52;;;;;;;21.63;17.02;;;-4.00;99.90;;;;;;4941422;29;20039;-81
2022/03/03 03:23:22;;;;;;;20.35;16.95;;;-4.00;99.90;;;;;;4952420;29;20057;-80
2022/03/03 03:25:49;;;;;;;27.33;17.45;;;-4.00;99.90;;;;;;4942880;29;20054;-83
2022/03/03 03:28:17;;;;;;;19.67;16.38;;;-4.10;99.90;;;;;;4937522;29;20401;-80
2022/03/03 03:30:44;;;;;;;19.52;15.20;;;-4.00;99.90;;;;;;4938105;29;20043;-83
2022/03/03 03:33:10;;;;;;;21.67;17.67;;;-4.00;99.90;;;;;;4950256;29;20047;-82
2022/03/03 03:35:37;;;;;;;22.45;17.05;;;-4.00;99.90;;;;;;4943161;29;20107;-81
2022/03/03 03:38:04;;;;;;;31.83;17.33;;;-4.00;99.90;;;;;;4937765;29;20043;-82
2022/03/03 03:40:31;;;;;;;18.90;15.25;;;-4.10;99.90;;;;;;4942933;29;20040;-83
2022/03/03 03:42:57;;;;;;;18.63;16.58;;;-4.20;99.90;;;;;;4938346;29;20043;-82
2022/03/03 03:45:23;;;;;;;23.80;17.10;;;-4.20;99.90;;;;;;4960085;28;20040;-82
2022/03/03 03:47:49;;;;;;;18.80;16.88;;;-4.20;99.90;;;;;;4936786;29;20481;-83
2022/03/03 03:50:16;;;;;;;21.73;16.83;;;-4.10;99.90;;;;;;4937484;29;20039;-83
2022/03/03 03:52:42;;;;;;;19.45;17.02;;;-4.00;99.90;;;;;;4944761;29;20042;-83
2022/03/03 03:55:11;;;;;;;20.63;17.63;;;-4.10;99.90;;;;;;4961400;28;20043;-83
2022/03/03 03:57:38;;;;;;;23.60;17.58;;;-4.20;99.90;;;;;;4958564;28;20119;-82
2022/03/03 04:00:08;;;;;;;21.80;17.58;;;-4.30;99.90;;;;;;4939071;29;20047;-83
2022/03/03 04:02:39;;;;;;;20.38;17.55;;;-4.20;99.90;;;;;;4946291;28;20035;-82
2022/03/03 04:05:06;;;;;;;18.55;16.75;;;-4.20;99.90;;;;;;4954974;28;20425;-82
2022/03/03 04:07:32;;;;;;;20.77;17.25;;;-4.20;99.90;;;;;;4935425;29;20438;-83
2022/03/03 04:09:58;;;;;;;24.10;16.27;;;-4.20;99.90;;;;;;4938387;29;20453;-83
2022/03/03 04:12:25;;;;;;;24.20;18.75;;;-4.20;99.90;;;;;;4937048;29;20035;-82
2022/03/03 04:14:52;;;;;;;23.20;17.45;;;-4.20;99.90;;;;;;4937338;29;20035;-82
2022/03/03 04:17:18;;;;;;;23.10;17.33;;;-4.20;99.90;;;;;;4948334;29;20054;-81
2022/03/03 04:19:44;;;;;;;24.65;19.52;;;-4.30;99.90;;;;;;4953135;29;20469;-82
2022/03/03 04:22:10;;;;;;;21.63;17.98;;;-4.40;99.90;;;;;;4945495;29;20038;-82
2022/03/03 04:24:37;;;;;;;23.63;18.63;;;-4.50;99.90;;;;;;4935269;29;20039;-82
2022/03/03 04:27:04;;;;;;;22.55;18.83;;;-4.40;99.90;;;;;;4934984;29;20043;-82
2022/03/03 04:29:31;;;;;;;29.65;18.40;;;-4.40;99.90;;;;;;4960349;28;20043;-82
2022/03/03 04:31:58;;;;;;;27.15;19.10;;;-4.30;99.90;;;;;;4966129;28;20039;-82
2022/03/03 04:34:27;;;;;;;27.95;20.70;;;-4.40;99.90;;;;;;4938252;29;20040;-82
2022/03/03 04:36:54;;;;;;;21.10;18.63;;;-4.30;99.90;;;;;;4938243;29;20047;-82
2022/03/03 04:39:20;;;;;;;18.75;16.77;;;-4.30;99.90;;;;;;4937141;29;20479;-81
2022/03/03 04:41:46;;;;;;;23.90;18.35;;;-4.30;99.90;;;;;;4949913;29;20036;-83
2022/03/03 04:44:13;;;;;;;23.35;19.33;;;-4.40;99.90;;;;;;4968780;28;20031;-82
2022/03/03 04:46:39;;;;;;;23.77;18.75;;;-4.50;99.90;;;;;;4939541;29;20027;-82
2022/03/03 04:49:05;;;;;;;23.50;18.92;;;-4.50;99.90;;;;;;4936251;29;20051;-82
2022/03/03 04:51:36;;;;;;;19.70;17.75;;;-4.50;99.90;;;;;;4936127;29;20034;-82
2022/03/03 04:54:05;;;;;;;22.95;19.23;;;-4.50;99.90;;;;;;4936319;29;20043;-81
2022/03/03 04:56:31;;;;;;;25.08;19.23;;;-4.60;99.90;;;;;;4935940;29;20370;-81
2022/03/03 04:58:57;;;;;;;23.08;19.63;;;-4.70;99.90;;;;;;4949402;28;20497;-81
2022/03/03 05:01:24;;;;;;;22.15;18.00;;;-4.70;99.90;;;;;;4935605;29;20047;-82
2022/03/03 05:03:50;;;;;;;24.00;18.52;;;-4.80;99.90;;;;;;4942243;29;20039;-82
2022/03/03 05:06:17;;;;;;;26.63;21.13;;;-4.80;99.90;;;;;;4953151;29;20046;-81
2022/03/03 05:08:44;;;;;;;30.92;23.50;;;-4.70;99.90;;;;;;4942126;29;20039;-82
2022/03/03 05:11:10;;;;;;;27.95;20.83;;;-4.70;99.90;;;;;;4960108;28;20044;-80
2022/03/03 05:13:37;;;;;;;27.10;21.75;;;-4.80;99.90;;;;;;4934371;29;20397;-79
2022/03/03 05:16:04;;;;;;;26.95;21.35;;;-4.80;99.90;;;;;;4935613;29;20058;-78
2022/03/03 05:18:30;;;;;;;32.38;20.45;;;-4.90;99.90;;;;;;4948551;28;20048;-78
2022/03/03 05:20:57;;;;;;;30.65;22.17;;;-4.90;99.90;;;;;;4939040;29;20031;-78
2022/03/03 05:23:23;;;;;;;29.13;21.20;;;-4.90;99.90;;;;;;4937754;29;20036;-79
2022/03/03 05:25:49;;;;;;;28.23;21.67;;;-4.90;99.90;;;;;;4937278;29;20393;-78
2022/03/03 05:28:16;;;;;;;27.65;22.30;;;-4.90;99.90;;;;;;4949251;28;20051;-78
2022/03/03 05:30:42;;;;;;;40.95;23.52;;;-4.90;99.90;;;;;;4961294;28;20050;-78
2022/03/03 05:33:08;;;;;;;30.98;23.35;;;-4.80;99.90;;;;;;4945777;29;20027;-78
2022/03/03 05:35:35;;;;;;;27.35;21.80;;;-4.80;99.90;;;;;;4951023;28;20051;-78
2022/03/03 05:38:01;;;;;;;27.50;22.77;;;-4.90;99.90;;;;;;4950590;29;20031;-78
2022/03/03 05:40:27;;;;;;;23.98;21.38;;;-4.80;99.90;;;;;;4921975;29;20047;-78
2022/03/03 05:42:54;;;;;;;25.58;21.75;;;-4.80;99.90;;;;;;4934009;29;20070;-79
2022/03/03 05:45:20;;;;;;;24.23;19.75;;;-4.80;99.90;;;;;;4934787;29;20377;-81
2022/03/03 05:47:47;;;;;;;24.00;21.23;;;-4.80;99.90;;;;;;4939729;29;20056;-78
2022/03/03 05:50:15;;;;;;;24.33;21.77;;;-4.90;99.90;;;;;;4940670;29;20032;-79
2022/03/03 05:52:41;;;;;;;25.48;22.05;;;-4.80;99.90;;;;;;4938704;29;20051;-79
2022/03/03 05:55:07;;;;;;;33.50;23.38;;;-4.70;99.90;;;;;;4949489;28;20049;-79
2022/03/03 05:57:42;;;;;;;27.92;22.30;;;-4.60;99.90;;;;;;4934081;29;20385;-79
2022/03/03 06:00:17;;;;;;;34.28;22.92;;;-4.70;99.90;;;;;;4941458;29;20071;-79
2022/03/03 06:02:51;;;;;;;28.15;22.75;;;-4.60;99.90;;;;;;4961230;28;20035;-78
2022/03/03 06:05:22;;;;;;;25.60;20.08;;;-4.60;99.90;;;;;;4934592;29;20039;-82
2022/03/03 06:07:52;;;;;;;26.60;21.77;;;-4.60;99.90;;;;;;4932959;29;20062;-78
2022/03/03 06:10:22;;;;;;;33.97;23.88;;;-4.60;99.90;;;;;;4947755;29;20042;-80
2022/03/03 06:12:54;;;;;;;26.15;23.50;;;-4.50;99.90;;;;;;4952518;29;20035;-78
2022/03/03 06:15:24;;;;;;;35.35;24.80;;;-4.50;99.90;;;;;;4937526;29;20040;-78
2022/03/03 06:17:50;;;;;;;27.00;22.85;;;-4.50;99.90;;;;;;4932980;29;20039;-79
2022/03/03 06:20:18;;;;;;;35.90;23.60;;;-4.50;99.90;;;;;;4933727;29;20044;-79
2022/03/03 06:22:45;;;;;;;35.55;26.80;;;-4.50;99.90;;;;;;4937957;29;20473;-79
2022/03/03 06:25:11;;;;;;;40.88;25.52;;;-4.40;99.90;;;;;;4940687;29;20050;-79
2022/03/03 06:27:38;;;;;;;30.50;22.65;;;-4.50;99.90;;;;;;4949472;28;20047;-78
2022/03/03 06:30:05;;;;;;;26.60;23.40;;;-4.50;99.90;;;;;;4959255;28;20405;-80
2022/03/03 06:32:31;;;;;;;29.95;24.10;;;-4.50;99.90;;;;;;4951634;29;20035;-79
2022/03/03 06:34:57;;;;;;;26.70;23.30;;;-4.50;99.90;;;;;;4940095;29;20047;-79
2022/03/03 06:37:24;;;;;;;25.45;21.75;;;-4.50;99.90;;;;;;4934084;29;20043;-79
2022/03/03 06:39:50;;;;;;;28.00;21.88;;;-4.50;99.90;;;;;;4957359;28;20040;-79
2022/03/03 06:42:17;;;;;;;29.02;23.23;;;-4.40;99.90;;;;;;4948032;29;20031;-80
2022/03/03 06:44:43;;;;;;;30.63;23.77;;;-4.40;99.90;;;;;;4940488;29;20044;-79
2022/03/03 06:47:09;;;;;;;30.75;26.55;;;-4.20;99.90;;;;;;4935500;29;20050;-79
2022/03/03 06:49:35;;;;;;;35.78;24.20;;;-4.10;99.90;;;;;;4937983;29;20051;-79
2022/03/03 06:52:07;;;;;;;24.80;22.08;;;-3.90;99.90;;;;;;4939180;29;20032;-80
2022/03/03 06:54:34;;;;;;;31.77;22.27;;;-3.70;99.90;;;;;;4950979;29;20051;-78
2022/03/03 06:57:00;;;;;;;24.52;20.65;;;-3.20;99.90;;;;;;4930578;29;20058;-78
2022/03/03 06:59:31;;;;;;;24.52;20.15;;;-2.70;99.90;;;;;;4956638;29;20050;-77
2022/03/03 07:01:59;;;;;;;29.27;21.58;;;-1.90;99.90;;;;;;4952823;29;20063;-79
2022/03/03 07:04:28;;;;;;;22.33;19.63;;;-1.00;99.90;;;;;;4953832;29;20039;-77
2022/03/03 07:06:54;;;;;;;19.38;16.85;;;-0.70;96.40;;;;;;4958320;28;20037;-79
2022/03/03 07:09:21;;;;;;;21.45;16.05;;;-0.80;94.00;;;;;;4950752;28;20047;-81
2022/03/03 07:11:48;;;;;;;18.35;14.35;;;-0.90;94.70;;;;;;4947366;29;20031;-78
2022/03/03 07:14:15;;;;;;;20.10;15.73;;;-0.90;95.00;;;;;;4925971;29;20044;-78
2022/03/03 07:16:50;;;;;;;19.10;16.42;;;-0.60;94.80;;;;;;4938207;29;20032;-78
2022/03/03 07:19:38;;;;;;;19.38;16.77;;;-0.60;93.30;;;;;;4942503;29;20031;-78
2022/03/03 07:22:19;;;;;;;17.80;16.00;;;-0.60;93.70;;;;;;4951671;29;20063;-76
2022/03/03 07:24:46;;;;;;;;;;;-0.30;93.30;;;;;;4938805;29;20136;-76
2022/03/03 07:27:21;;;;;;;18.95;14.70;;;-0.40;92.90;;;;;;4937477;29;19918;-77
2022/03/03 07:29:56;;;;;;;16.85;14.45;;;-0.50;93.40;;;;;;4945981;29;20488;-77
2022/03/03 07:32:33;;;;;;;23.63;19.25;;;0.10;93.80;;;;;;4958635;28;20046;-76
2022/03/03 07:35:06;;;;;;;17.13;15.40;;;0.60;91.50;;;;;;4937289;29;20042;-77
2022/03/03 07:37:40;;;;;;;14.98;13.50;;;1.10;88.50;;;;;;4936832;29;20433;-76
2022/03/03 07:40:09;;;;;;;15.18;13.13;;;1.40;86.30;;;;;;4952348;28;20044;-76
2022/03/03 07:42:36;;;;;;;17.38;13.77;;;1.40;83.50;;;;;;4937702;29;20035;-77
2022/03/03 07:45:07;;;;;;;16.02;14.40;;;1.40;82.60;;;;;;4937811;29;20039;-76
2022/03/03 07:47:34;;;;;;;18.20;14.20;;;1.60;83.60;;;;;;4936023;29;20046;-76
2022/03/03 07:50:01;;;;;;;14.93;13.25;;;2.10;82.00;;;;;;4937470;29;20050;-76
2022/03/03 07:52:28;;;;;;;30.52;15.05;;;2.00;80.70;;;;;;4937128;29;20457;-76
2022/03/03 07:54:55;;;;;;;15.82;14.20;;;1.80;81.10;;;;;;4937404;29;20043;-76
2022/03/03 07:57:23;;;;;;;20.73;15.48;;;1.80;81.60;;;;;;4936218;29;20032;-75
2022/03/03 07:59:59;;;;;;;16.30;14.90;;;1.60;81.90;;;;;;4945047;29;20032;-76
2022/03/03 08:02:30;;;;;;;15.98;14.35;;;1.40;83.00;;;;;;4937369;29;20051;-76
2022/03/03 08:05:00;;;;;;;16.83;15.07;;;1.30;84.00;;;;;;4937009;29;20031;-76
2022/03/03 08:07:27;;;;;;;20.27;15.85;;;1.40;84.30;;;;;;4935841;29;20028;-76
2022/03/03 08:09:59;;;;;;;20.30;14.65;;;1.80;83.80;;;;;;4937379;29;20039;-77
2022/03/03 08:12:28;;;;;;;16.45;14.95;;;2.40;80.60;;;;;;4951928;28;20043;-76
2022/03/03 08:14:54;;;;;;;18.25;16.08;;;3.50;76.70;;;;;;4936576;29;20023;-77
2022/03/03 08:17:23;;;;;;;14.98;13.75;;;3.40;75.40;;;;;;4935571;29;20036;-77
2022/03/03 08:19:53;;;;;;;16.67;15.02;;;3.90;73.70;;;;;;4937383;29;20486;-76
2022/03/03 08:22:24;;;;;;;15.80;14.32;;;3.80;72.70;;;;;;4935726;29;20031;-76
2022/03/03 08:24:56;;;;;;;16.52;15.00;;;3.60;73.10;;;;;;4964914;28;20048;-76
2022/03/03 08:27:23;;;;;;;16.65;14.80;;;4.10;71.80;;;;;;4935808;29;20046;-76
2022/03/03 08:29:50;;;;;;;19.35;15.23;;;4.50;70.10;;;;;;4949958;29;20381;-76
2022/03/03 08:32:18;;;;;;;17.60;15.85;;;4.70;69.70;;;;;;4936347;29;20043;-76
2022/03/03 08:35:00;;;;;;;22.55;15.88;;;4.70;69.60;;;;;;4935869;29;20223;-76
2022/03/03 08:37:40;;;;;;;19.88;17.92;;;4.30;68.40;;;;;;4934977;29;20473;-77
2022/03/03 08:40:10;;;;;;;19.02;17.27;;;5.20;68.30;;;;;;4936431;29;20035;-77
2022/03/03 08:42:39;;;;;;;17.92;15.60;;;5.60;66.40;;;;;;4936405;29;20397;-76
2022/03/03 08:45:09;;;;;;;17.63;14.63;;;5.20;64.60;;;;;;4942079;29;20035;-76
2022/03/03 08:47:36;;;;;;;16.13;14.57;;;5.30;65.90;;;;;;4935248;29;20040;-76
2022/03/03 08:50:13;;;;;;;17.50;15.63;;;6.40;63.60;;;;;;4936554;29;20047;-76
2022/03/03 08:52:43;;;;;;;15.93;14.52;;;6.60;62.00;;;;;;4935457;29;20036;-77
2022/03/03 08:55:11;;;;;;;16.00;14.45;;;7.00;61.70;;;;;;4936630;29;20042;-77
2022/03/03 08:57:38;;;;;;;17.25;15.73;;;7.00;60.40;;;;;;4939269;29;20036;-76
2022/03/03 09:00:10;;;;;;;15.68;14.30;;;6.50;60.90;;;;;;4936211;29;20449;-76
2022/03/03 09:02:36;;;;;;;15.98;14.48;;;6.40;60.70;;;;;;4937626;29;20115;-77
2022/03/03 09:05:03;;;;;;;15.93;14.63;;;5.80;62.20;;;;;;4945564;29;20499;-76
2022/03/03 09:07:30;;;;;;;15.20;13.90;;;6.10;63.00;;;;;;4934702;29;20059;-76
2022/03/03 09:09:56;;;;;;;16.80;15.10;;;6.50;61.70;;;;;;4935260;29;20047;-76
2022/03/03 09:12:23;;;;;;;17.10;15.38;;;6.30;61.30;;;;;;4935358;29;20039;-76
2022/03/03 09:14:49;;;;;;;16.98;15.45;;;6.70;61.40;;;;;;4936396;29;20377;-76
2022/03/03 09:17:16;;;;;;;16.55;14.95;;;7.30;60.20;;;;;;4933919;29;20032;-76
2022/03/03 09:19:42;;;;;;;24.92;16.95;;;7.20;58.50;;;;;;4935625;29;20040;-76
2022/03/03 09:22:09;;;;;;;18.67;16.77;;;6.70;60.20;;;;;;4949955;29;20385;-77
2022/03/03 09:24:35;;;;;;;16.77;15.02;;;6.60;60.20;;;;;;4936054;29;20044;-77
2022/03/03 09:27:04;;;;;;;15.23;13.60;;;7.50;59.70;;;;;;4935013;29;20032;-76
2022/03/03 09:29:33;;;;;;;17.02;15.40;;;7.30;58.80;;;;;;4935041;29;20197;-76
2022/03/03 09:32:05;;;;;;;16.23;13.70;;;7.20;59.30;;;;;;4935234;29;20066;-76
2022/03/03 09:34:32;;;;;;;16.73;15.02;;;7.10;59.40;;;;;;4935508;29;20047;-76
2022/03/03 09:36:58;;;;;;;17.55;15.93;;;7.40;59.10;;;;;;4934513;29;20031;-76
2022/03/03 09:39:25;;;;;;;17.60;14.98;;;6.80;59.80;;;;;;4952610;29;20039;-75
2022/03/03 09:41:52;;;;;;;17.98;16.17;;;6.90;59.50;;;;;;4937484;29;20036;-76
2022/03/03 09:44:23;;;;;;;16.83;15.20;;;7.20;59.30;;;;;;4935711;29;20028;-75
2022/03/03 09:46:50;;;;;;;18.00;15.23;;;7.30;58.80;;;;;;4935271;29;20043;-76
2022/03/03 09:49:17;;;;;;;18.38;16.40;;;6.90;59.20;;;;;;4944199;29;20393;-77
2022/03/03 09:51:43;;;;;;;16.58;15.05;;;6.90;59.90;;;;;;4948722;29;20035;-76
2022/03/03 09:54:10;;;;;;;16.60;14.02;;;6.80;60.10;;;;;;4949621;28;20055;-76
2022/03/03 09:56:37;;;;;;;21.77;15.90;;;6.30;58.90;;;;;;4933529;29;20039;-76
2022/03/03 09:59:05;;;;;;;18.65;16.73;;;5.90;61.40;;;;;;4935294;29;20040;-76
2022/03/03 10:01:31;;;;;;;19.30;17.45;;;5.70;62.10;;;;;;4934292;29;20059;-76
2022/03/03 10:04:13;;;;;;;18.42;16.00;;;5.80;64.10;;;;;;4952075;28;20052;-76
2022/03/03 10:06:43;;;;;;;16.92;15.45;;;6.30;62.40;;;;;;4941796;29;20418;-76
2022/03/03 10:09:10;;;;;;;17.57;16.07;;;6.10;60.90;;;;;;4932689;29;20059;-76
2022/03/03 10:12:01;;;;;;;19.63;17.80;;;5.80;61.20;;;;;;4933940;29;20306;-76
2022/03/03 10:14:35;;;;;;;18.33;16.08;;;5.80;62.00;;;;;;4937940;29;20073;-76
2022/03/03 10:17:03;;;;;;;17.80;16.20;;;5.80;62.20;;;;;;4933627;29;20031;-75
2022/03/03 10:19:29;;;;;;;17.80;16.20;;;5.80;60.30;;;;;;4934026;29;20040;-76
2022/03/03 10:21:56;;;;;;;21.60;19.35;;;5.80;61.70;;;;;;4934850;28;20039;-75
2022/03/03 10:24:24;;;;;;;19.52;17.08;;;5.70;62.50;;;;;;4937777;29;20042;-75
2022/03/03 10:26:57;;;;;;;18.75;16.92;;;5.80;62.80;;;;;;4937072;29;20488;-76
2022/03/03 10:29:24;;;;;;;17.08;15.48;;;6.20;62.10;;;;;;4951588;28;20040;-75
2022/03/03 10:31:52;;;;;;;18.83;17.13;;;6.20;60.60;;;;;;4937424;29;20065;-75
2022/03/03 10:34:21;;;;;;;17.88;16.10;;;6.20;60.90;;;;;;4952564;28;20035;-76
2022/03/03 10:37:01;;;;;;;16.10;14.73;;;6.40;60.90;;;;;;4937192;29;20051;-76
2022/03/03 10:39:45;;;;;;;17.88;16.13;;;6.60;59.80;;;;;;4937128;29;20035;-75
2022/03/03 10:42:15;;;;;;;18.60;16.65;;;6.50;59.80;;;;;;4937681;29;20512;-75
2022/03/03 10:44:41;;;;;;;16.63;14.93;;;6.60;59.10;;;;;;4937159;29;20040;-76
2022/03/03 10:47:10;;;;;;;17.10;15.60;;;6.60;59.00;;;;;;4950417;28;20044;-75
2022/03/03 10:49:41;;;;;;;16.80;15.13;;;6.90;58.00;;;;;;4952184;28;20056;-76
2022/03/03 10:52:11;;;;;;;18.55;16.55;;;6.80;58.40;;;;;;4957299;28;20032;-76
2022/03/03 10:54:54;;;;;;;18.65;16.73;;;6.70;58.40;;;;;;4944051;29;20027;-76
2022/03/03 10:57:39;;;;;;;31.67;16.20;;;6.90;58.40;;;;;;4937122;29;20044;-75
2022/03/03 11:00:07;;;;;;;17.00;15.43;;;7.20;57.30;;;;;;4914894;28;1078727;-75
2022/03/03 11:02:34;;;;;;;15.95;14.40;;;7.10;57.20;;;;;;4942369;29;20032;-76
2022/03/03 11:05:01;;;;;;;16.13;14.63;;;7.20;57.20;;;;;;4950298;29;20051;-75
2022/03/03 11:07:29;;;;;;;17.08;15.23;;;7.10;56.50;;;;;;4937348;29;20032;-75
2022/03/03 11:09:56;;;;;;;17.90;15.68;;;7.10;56.30;;;;;;4959386;28;20496;-76
2022/03/03 11:12:25;;;;;;;15.52;14.13;;;7.30;56.30;;;;;;4938447;29;20036;-76
2022/03/03 11:14:53;;;;;;;15.82;14.40;;;7.70;56.50;;;;;;4940500;29;20052;-76
2022/03/03 11:17:20;;;;;;;15.75;14.40;;;7.60;55.60;;;;;;4954173;29;20035;-76
2022/03/03 11:19:49;;;;;;;14.93;13.20;;;7.40;54.70;;;;;;4949088;29;20044;-76
2022/03/03 11:22:16;;;;;;;31.38;15.20;;;7.70;55.60;;;;;;4942211;29;20046;-76
2022/03/03 11:24:43;;;;;;;17.77;14.45;;;8.00;54.90;;;;;;4938896;29;20043;-77
2022/03/03 11:27:09;;;;;;;21.65;15.80;;;7.70;55.40;;;;;;4943592;29;20053;-76
2022/03/03 11:29:38;;;;;;;17.40;15.80;;;7.70;55.20;;;;;;4947292;29;20051;-75
2022/03/03 11:32:17;;;;;;;16.10;14.48;;;8.00;54.50;;;;;;4943412;29;20047;-77
2022/03/03 11:34:46;;;;;;;15.93;14.57;;;8.10;54.80;;;;;;4947966;29;20032;-75
2022/03/03 11:37:23;;;;;;;16.55;14.95;;;8.20;54.80;;;;;;4965307;28;20520;-76
2022/03/03 11:40:03;;;;;;;17.35;15.63;;;8.30;54.20;;;;;;4956148;29;20052;-75
2022/03/03 11:42:46;;;;;;;18.30;14.18;;;8.20;54.10;;;;;;4937284;29;20036;-74
2022/03/03 11:45:12;;;;;;;18.08;16.33;;;8.30;54.40;;;;;;4938323;29;20036;-75
2022/03/03 11:47:42;;;;;;;37.13;25.80;;;8.30;52.20;;;;;;4937892;29;20027;-74
2022/03/03 11:50:16;;;;;;;21.45;19.20;;;8.30;52.80;;;;;;4952006;29;20048;-75
2022/03/03 11:52:57;;;;;;;16.45;14.70;;;8.40;52.30;;;;;;4937330;29;20075;-75
2022/03/03 11:55:45;;;;;;;16.35;14.85;;;8.60;52.30;;;;;;4947806;29;20040;-75
2022/03/03 11:58:16;;;;;;;18.20;14.73;;;8.50;52.30;;;;;;4953930;29;20039;-75
2022/03/03 12:00:52;;;;;;;16.95;15.18;;;8.40;52.00;;;;;;4940353;29;20292;-76
2022/03/03 12:03:19;;;;;;;17.10;15.60;;;8.50;51.30;;;;;;4938358;29;20055;-76
2022/03/03 12:05:48;;;;;;;16.40;14.90;;;8.70;51.30;;;;;;4950166;29;20500;-76
2022/03/03 12:08:14;;;;;;;19.55;16.75;;;8.70;51.30;;;;;;4938285;29;20036;-75
2022/03/03 12:11:01;;;;;;;16.95;15.23;;;8.80;52.50;;;;;;4950516;28;20059;-75
2022/03/03 12:13:39;;;;;;;17.52;14.88;;;8.80;52.00;;;;;;4937631;29;20412;-76
2022/03/03 12:16:30;;;;;;;17.10;15.07;;;8.90;50.90;;;;;;4936944;29;20039;-75
2022/03/03 12:18:56;;;;;;;19.63;14.10;;;8.90;51.50;;;;;;4937341;29;20043;-75
2022/03/03 12:21:23;;;;;;;14.63;13.23;;;8.90;50.40;;;;;;4935598;29;20272;-75
2022/03/03 12:23:49;;;;;;;13.88;12.57;;;8.80;50.70;;;;;;4936932;29;20036;-75
2022/03/03 12:26:16;;;;;;;16.02;14.35;;;9.00;49.90;;;;;;4936089;29;20043;-76
2022/03/03 12:28:47;;;;;;;15.82;14.32;;;8.90;49.20;;;;;;4950540;28;20052;-76
2022/03/03 12:31:29;;;;;;;16.02;13.55;;;9.00;49.50;;;;;;4936991;29;20032;-75
2022/03/03 12:33:59;;;;;;;15.82;14.32;;;9.20;49.40;;;;;;4955731;29;20043;-75
2022/03/03 12:36:25;;;;;;;14.48;13.15;;;9.20;49.40;;;;;;4936982;29;20027;-76